^^
Datos históricos de la estación: Murcia-Puente Tocinos
Diario Informe para Junio 27, 2019 Unidades:  Ingés    Métrico   Ambas
Diario Semanal Mensual Anual
  Máxima: Mínima: Promedio:
Temperatura: 96.6 °F 77.4 °F 86.9 °F
Punto de rocio: 67.3 °F 42.6 °F 51.4 °F
Humedad: 62% 16% 32%
Velocidad viento: 17.5mph 0mph 6.5mph
Racha viento: 31.1mph - -
Viento- - SO
Presión: 29.7 in 29.6 in -
Precipitación: 0 in    
 
 
Tabla de datos para Junio 27, 2019
Hora Temperatura Punto de rocio Presión Viento Velocidad viento Racha viento Humedad Intensidad lluvia(por hora) Nubes
00:04 81.7 °F 67.3 °F 29.7 in NNE 3.1 mph 6 mph 62% 0 in
00:09 81.5 °F 67.3 °F 29.7 in NE 3 mph 5 mph 62% 0 in
00:14 81.5 °F 67.3 °F 29.7 in NE 2.9 mph 3 mph 62% 0 in
00:19 81.7 °F 66.6 °F 29.7 in NE 2 mph 3.1 mph 60.5% 0 in
00:24 81.7 °F 66.4 °F 29.7 in Calm   3.5 mph 59.7% 0 in
00:29 81.9 °F 66.7 °F 29.7 in NNO 0.4 mph 3.6 mph 60.4% 0 in
00:34 81.9 °F 67.1 °F 29.7 in NO 1.4 mph 5.4 mph 61% 0 in
00:39 81.9 °F 67.1 °F 29.7 in NO 1.7 mph 6 mph 61% 0 in
00:44 81.7 °F 67.1 °F 29.7 in NO 2.4 mph 6 mph 61.3% 0 in
00:49 81.5 °F 66.9 °F 29.7 in NO 2.2 mph 5 mph 61.4% 0 in
00:54 81.5 °F 66.9 °F 29.7 in ONO 1.8 mph 4.6 mph 61.6% 0 in
00:59 81.3 °F 67.1 °F 29.7 in ONO 1.9 mph 5 mph 62% 0 in
01:04 81.3 °F 67.1 °F 29.7 in ONO 2 mph 5 mph 62% 0 in
01:09 81.3 °F 66.7 °F 29.7 in ONO 1.9 mph 3.6 mph 61.2% 0 in
01:14 81.7 °F 66.6 °F 29.7 in ONO 1.8 mph 4 mph 60.6% 0 in
01:19 81.7 °F 66.2 °F 29.7 in ONO 1.7 mph 3 mph 59.6% 0 in
01:24 81.9 °F 66.2 °F 29.7 in ONO 1.4 mph 3 mph 59.1% 0 in
01:29 81.9 °F 66.2 °F 29.7 in SO 1.6 mph 4.6 mph 59% 0 in
01:34 82 °F 66.4 °F 29.7 in Sur 2 mph 6.2 mph 59% 0 in
01:39 82 °F 66.4 °F 29.7 in Sur 2.5 mph 6.9 mph 59% 0 in
01:44 82 °F 66.4 °F 29.7 in SSO 3.6 mph 7 mph 59% 0 in
01:49 82 °F 66.2 °F 29.7 in SSO 3.6 mph 6.2 mph 59% 0 in
01:54 82 °F 66.2 °F 29.7 in Sur 3.6 mph 6.2 mph 59% 0 in
01:59 81.9 °F 66 °F 29.7 in Sur 3.7 mph 6 mph 59% 0 in
02:04 81.9 °F 66 °F 29.7 in SE 4 mph 6 mph 59% 0 in
02:09 81.7 °F 66 °F 29.7 in SSE 3.7 mph 6.9 mph 59% 0 in
02:14 81.1 °F 65.5 °F 29.7 in Sur 3.1 mph 7 mph 59% 0 in
02:19 81.1 °F 65.5 °F 29.7 in SSO 3.4 mph 6 mph 59% 0 in
02:24 81.1 °F 65.5 °F 29.7 in SSO 4 mph 6 mph 59% 0 in
02:29 81.1 °F 65.3 °F 29.7 in SSO 3.9 mph 6.2 mph 58.5% 0 in
02:34 81.1 °F 64.9 °F 29.7 in Sur 3.6 mph 6 mph 58% 0 in
02:39 81.3 °F 65.1 °F 29.7 in SSO 3.4 mph 5 mph 58% 0 in
02:44 81.3 °F 64.9 °F 29.7 in SSO 2.9 mph 4 mph 57.8% 0 in
02:49 81.3 °F 63.9 °F 29.7 in OSO 2.7 mph 5.8 mph 55.5% 0 in
02:54 81.3 °F 61.2 °F 29.7 in SO 2.4 mph 8.1 mph 50.3% 0 in
02:59 81.9 °F 57.9 °F 29.7 in OSO 2.9 mph 8.5 mph 44.3% 0 in
03:04 82 °F 55.4 °F 29.7 in OSO 4 mph 9 mph 40% 0 in
03:09 82.4 °F 53.2 °F 29.7 in SO 4.1 mph 9 mph 36.8% 0 in
03:14 82.8 °F 52.7 °F 29.7 in SO 4.3 mph 7 mph 35.6% 0 in
03:19 82.9 °F 51.8 °F 29.7 in SO 4.3 mph 7.4 mph 34.1% 0 in
03:24 82.9 °F 51.6 °F 29.7 in OSO 4.3 mph 7 mph 34% 0 in
03:29 82.9 °F 51.8 °F 29.7 in SO 4.1 mph 6 mph 34.1% 0 in
03:34 82.9 °F 55 °F 29.7 in Sur 3.6 mph 6 mph 38.5% 0 in
03:39 82.6 °F 58.3 °F 29.7 in Sur 3.8 mph 6.9 mph 43.8% 0 in
03:44 82 °F 58.5 °F 29.7 in SO 4.3 mph 7 mph 44.8% 0 in
03:49 81.7 °F 57.7 °F 29.7 in SO 4.2 mph 6 mph 44.2% 0 in
03:54 81.7 °F 56.5 °F 29.7 in SO 4 mph 6.2 mph 42.3% 0 in
03:59 81.9 °F 55.4 °F 29.7 in SO 4 mph 6.2 mph 40.3% 0 in
04:04 82 °F 54.3 °F 29.7 in SO 4 mph 6.9 mph 38.6% 0 in
04:09 82.2 °F 53.2 °F 29.7 in OSO 3.7 mph 7 mph 36.9% 0 in
04:14 82.4 °F 51.4 °F 29.7 in OSO 3.1 mph 7.4 mph 34.2% 0 in
04:19 82.4 °F 51.3 °F 29.7 in OSO 3.2 mph 7 mph 33.9% 0 in
04:24 82.4 °F 50.5 °F 29.7 in Oeste 3.6 mph 6.9 mph 33.2% 0 in
04:29 82.2 °F 49.5 °F 29.7 in Oeste 3.4 mph 7 mph 32.1% 0 in
04:34 82 °F 49.3 °F 29.7 in Oeste 3.1 mph 6 mph 32% 0 in
04:39 81.9 °F 49.3 °F 29.7 in Sur 2.7 mph 5 mph 32.3% 0 in
04:44 81.9 °F 50.2 °F 29.7 in SSE 2 mph 4 mph 33.3% 0 in
04:49 81.7 °F 50.5 °F 29.7 in SSE 1.9 mph 4.3 mph 34% 0 in
04:54 81.5 °F 51.1 °F 29.7 in SE 1.8 mph 5.8 mph 35% 0 in
04:59 81.1 °F 51.8 °F 29.7 in ESE 2.2 mph 6 mph 36% 0 in
05:04 80.8 °F 51.8 °F 29.7 in SE 3.1 mph 6.2 mph 36.6% 0 in
05:09 80.4 °F 51.8 °F 29.7 in SE 3.2 mph 6.4 mph 37% 0 in
05:14 80.1 °F 51.4 °F 29.7 in SSE 3.6 mph 7 mph 37% 0 in
05:19 80.1 °F 51.4 °F 29.7 in SSE 4 mph 7 mph 37% 0 in
05:24 79.9 °F 51.3 °F 29.7 in Sur 4.7 mph 7 mph 37% 0 in
05:29 79.9 °F 51.3 °F 29.7 in Sur 4.3 mph 6.2 mph 37% 0 in
05:34 79.5 °F 51.1 °F 29.7 in SSE 3.6 mph 6.2 mph 37% 0 in
05:39 79.5 °F 51.1 °F 29.7 in Sur 3.7 mph 6.9 mph 37% 0 in
05:44 79.3 °F 51.4 °F 29.7 in Sur 4 mph 7 mph 37.8% 0 in
05:49 79.3 °F 51.4 °F 29.7 in SSO 4 mph 6 mph 38% 0 in
05:54 79.2 °F 51.4 °F 29.7 in Sur 4 mph 6.9 mph 37.9% 0 in
05:59 79.2 °F 50.4 °F 29.7 in SSO 4 mph 7 mph 36.5% 0 in
06:04 79.2 °F 50 °F 29.7 in SSO 4 mph 7 mph 36% 0 in
06:09 79.2 °F 50 °F 29.7 in Sur 3.7 mph 6.9 mph 36% 0 in
06:14 79.2 °F 49.3 °F 29.7 in SSE 3.1 mph 7 mph 35.2% 0 in
06:19 79 °F 50.2 °F 29.7 in ESE 3.2 mph 6 mph 36.7% 0 in
06:24 78.4 °F 50.4 °F 29.7 in ESE 3.6 mph 5.9 mph 37.3% 0 in
06:29 77.9 °F 50.2 °F 29.7 in ESE 3.4 mph 6 mph 37.9% 0 in
06:34 77.5 °F 49.6 °F 29.7 in SE 3.1 mph 6.9 mph 37.5% 0 in
06:39 77.4 °F 49.3 °F 29.7 in SSE 3.1 mph 7 mph 37.2% 0 in
06:44 77.4 °F 48.4 °F 29.7 in SSE 3.1 mph 5.8 mph 36.1% 0 in
06:49 77.5 °F 48.2 °F 29.7 in SSE 3.2 mph 6 mph 35.7% 0 in
06:54 77.5 °F 47.7 °F 29.7 in SSE 3.6 mph 6.2 mph 35% 0 in
06:59 77.5 °F 47.5 °F 29.7 in SE 3.7 mph 6.2 mph 34.7% 0 in
07:04 77.7 °F 47.1 °F 29.7 in SSE 4 mph 6.2 mph 34% 0 in
07:09 77.7 °F 46.9 °F 29.7 in Sur 4 mph 6 mph 33.9% 0 in
07:14 77.7 °F 47.1 °F 29.7 in Sur 4 mph 6 mph 33.9% 0 in
07:19 77.7 °F 46.4 °F 29.7 in Sur 3.4 mph 5 mph 33.2% 0 in
07:24 77.9 °F 46.2 °F 29.7 in SSO 2 mph 5.9 mph 32.8% 0 in
07:29 78.3 °F 46 °F 29.7 in Sur 2.5 mph 6 mph 32.1% 0 in
07:34 78.4 °F 45.7 °F 29.7 in Sur 3.6 mph 6.9 mph 31.6% 0 in
07:39 78.4 °F 45.9 °F 29.7 in SSO 3.9 mph 7 mph 31.6% 0 in
07:44 78.4 °F 45.3 °F 29.7 in SSO 4.7 mph 7 mph 31% 0 in
07:49 78.4 °F 45.3 °F 29.7 in SSO 4.6 mph 7 mph 31% 0 in
07:54 78.8 °F 45.1 °F 29.7 in SO 4.3 mph 7 mph 30.5% 0 in
07:59 79.2 °F 45 °F 29.7 in SO 4.2 mph 7.6 mph 30.1% 0 in
08:04 79.3 °F 45.1 °F 29.7 in SSO 4 mph 8.1 mph 30% 0 in
08:09 79.3 °F 45.1 °F 29.7 in SSO 4.1 mph 7 mph 30% 0 in
08:14 79.3 °F 45.3 °F 29.7 in Sur 4.3 mph 6.9 mph 30% 0 in
08:19 79.5 °F 45.7 °F 29.7 in Sur 4.3 mph 7 mph 30.4% 0 in
08:24 79.5 °F 46.2 °F 29.7 in Sur 4.3 mph 6 mph 31% 0 in
08:29 79.5 °F 46.2 °F 29.7 in Sur 3.9 mph 5.2 mph 31% 0 in
08:34 79.9 °F 46.4 °F 29.7 in Sur 3.1 mph 5.9 mph 30.9% 0 in
08:39 80.1 °F 46.6 °F 29.7 in SSO 3.1 mph 6.9 mph 30.9% 0 in
08:44 80.2 °F 46.6 °F 29.7 in SO 3.1 mph 7 mph 30.7% 0 in
08:49 80.4 °F 46 °F 29.7 in SO 3.1 mph 5.9 mph 30% 0 in
08:54 80.8 °F 45.9 °F 29.7 in SSO 3.1 mph 8.5 mph 29.3% 0 in
08:59 80.8 °F 45.5 °F 29.7 in SSO 4 mph 9.2 mph 28.9% 0 in
09:04 80.8 °F 45.5 °F 29.7 in SSO 5.9 mph 9 mph 29% 0 in
09:09 81 °F 45.7 °F 29.7 in SSO 5.7 mph 8 mph 29% 0 in
09:14 81.1 °F 45.3 °F 29.7 in SO 5.2 mph 7 mph 28.3% 0 in
09:19 81.7 °F 45.3 °F 29.7 in OSO 4.8 mph 6.2 mph 28% 0 in
09:24 82 °F 45.7 °F 29.7 in OSO 4 mph 6 mph 28% 0 in
09:29 82.4 °F 46 °F 29.7 in OSO 3.5 mph 5.9 mph 28% 0 in
09:34 82.6 °F 46.2 °F 29.7 in OSO 2.4 mph 8.1 mph 28% 0 in
09:39 82.6 °F 46.2 °F 29.7 in OSO 2.8 mph 8.1 mph 28% 0 in
09:44 82.9 °F 46.4 °F 29.7 in SO 3.6 mph 7 mph 27.9% 0 in
09:49 83.3 °F 46.8 °F 29.7 in SSO 3.2 mph 6 mph 28% 0 in
09:54 83.5 °F 46.9 °F 29.7 in SO 2.4 mph 6.9 mph 28.1% 0 in
09:59 83.8 °F 46.8 °F 29.7 in ONO 2.8 mph 11.4 mph 27.5% 0 in
10:04 84.4 °F 45.7 °F 29.7 in ONO 3.6 mph 14 mph 26.1% 0 in
10:09 84.6 °F 45.9 °F 29.7 in ONO 4.8 mph 14 mph 25.9% 0 in
10:14 84.6 °F 45.3 °F 29.7 in ONO 7.4 mph 14 mph 25.5% 0 in
10:19 84.9 °F 45.3 °F 29.7 in ONO 7.3 mph 13 mph 25.2% 0 in
10:24 84.9 °F 45.1 °F 29.7 in ONO 6.9 mph 13 mph 25% 0 in
10:29 84.9 °F 45.1 °F 29.7 in ONO 6.9 mph 12 mph 25% 0 in
10:34 85.3 °F 45.5 °F 29.7 in OSO 6.9 mph 12 mph 25% 0 in
10:39 85.6 °F 45.7 °F 29.7 in Oeste 5.9 mph 7 mph 25% 0 in
10:44 85.8 °F 45.1 °F 29.7 in Oeste 3.6 mph 9.7 mph 24.4% 0 in
10:49 85.8 °F 44.8 °F 29.7 in ONO 3.7 mph 10 mph 24% 0 in
10:54 86.2 °F 45.1 °F 29.7 in OSO 4 mph 7 mph 24% 0 in
10:59 86.5 °F 45.5 °F 29.7 in Oeste 3.9 mph 7.4 mph 24% 0 in
11:04 86.5 °F 45.5 °F 29.7 in SO 3.6 mph 9.7 mph 24% 0 in
11:09 86.7 °F 45.5 °F 29.7 in OSO 3.9 mph 10 mph 23.9% 0 in
11:14 86.9 °F 44.8 °F 29.7 in SSO 4.7 mph 12.3 mph 23.2% 0 in
11:19 86.9 °F 44.6 °F 29.7 in OSO 4.8 mph 13 mph 23% 0 in
11:24 87.3 °F 45.1 °F 29.7 in OSO 5.2 mph 13 mph 23.2% 0 in
11:29 87.4 °F 45.1 °F 29.7 in OSO 5.2 mph 10 mph 23% 0 in
11:34 87.6 °F 44.6 °F 29.7 in OSO 5.2 mph 11.8 mph 22.5% 0 in
11:39 87.8 °F 44.2 °F 29.7 in SO 5.6 mph 12.7 mph 22.1% 0 in
11:44 87.6 °F 44.1 °F 29.7 in Oeste 6.4 mph 13 mph 22% 0 in
11:49 87.8 °F 44.2 °F 29.7 in Oeste 6.3 mph 11.5 mph 22% 0 in
11:54 87.8 °F 44.2 °F 29.7 in OSO 6.2 mph 12 mph 22% 0 in
11:59 88 °F 44.4 °F 29.7 in OSO 5.8 mph 12 mph 22% 0 in
12:04 88.3 °F 44.2 °F 29.7 in OSO 5.2 mph 12.7 mph 21.7% 0 in
12:09 88.3 °F 43.5 °F 29.7 in ONO 5.5 mph 13 mph 21% 0 in
12:14 88.3 °F 43.3 °F 29.7 in SSO 6.2 mph 13 mph 21% 0 in
12:19 88.3 °F 43.3 °F 29.7 in Sur 6.3 mph 13 mph 21% 0 in
12:24 88.3 °F 43.5 °F 29.7 in ESE 6.4 mph 9 mph 21% 0 in
12:29 89.1 °F 44.1 °F 29.7 in ESE 5.3 mph 8.5 mph 21% 0 in
12:34 90 °F 44.6 °F 29.7 in SSE 3.1 mph 9 mph 21% 0 in
12:39 90.1 °F 44.8 °F 29.7 in SSE 3.6 mph 9.7 mph 20.9% 0 in
12:44 90.1 °F 45 °F 29.7 in Este 4.7 mph 10 mph 21% 0 in
12:49 90.1 °F 45 °F 29.7 in ESE 4.9 mph 9.2 mph 21% 0 in
12:54 90.1 °F 45 °F 29.7 in Sur 5.4 mph 9.2 mph 21% 0 in
12:59 90.1 °F 44.8 °F 29.7 in SE 5.3 mph 10.2 mph 20.8% 0 in
13:04 90.5 °F 44.1 °F 29.7 in SSO 5.2 mph 10.4 mph 20.2% 0 in
13:09 90.7 °F 44.2 °F 29.7 in Sur 5.6 mph 15 mph 20.1% 0 in
13:14 90.7 °F 44.1 °F 29.7 in Sur 6.4 mph 15 mph 20% 0 in
13:19 90.7 °F 44.1 °F 29.7 in SO 6.4 mph 11.5 mph 20% 0 in
13:24 91 °F 44.4 °F 29.7 in NNO 6.4 mph 12 mph 20% 0 in
13:29 91.6 °F 44.6 °F 29.7 in Este 5.3 mph 7.4 mph 19.9% 0 in
13:34 91.8 °F 43.9 °F 29.7 in Sur 2.9 mph 9.2 mph 19.2% 0 in
13:39 91.6 °F 44.1 °F 29.7 in SE 3.3 mph 9 mph 19.5% 0 in
13:44 91.9 °F 44.1 °F 29.7 in SO 4.3 mph 8.1 mph 19.2% 0 in
13:49 92.5 °F 44.2 °F 29.7 in OSO 4.4 mph 8.1 mph 19% 0 in
13:54 92.5 °F 44.4 °F 29.7 in SSE 4.7 mph 9.2 mph 19.1% 0 in
13:59 92.7 °F 44.4 °F 29.7 in ONO 4.5 mph 9.2 mph 19% 0 in
14:04 92.8 °F 44.2 °F 29.7 in SO 4.3 mph 9 mph 18.8% 0 in
14:09 92.8 °F 43.3 °F 29.6 in SO 4.3 mph 11.4 mph 18.1% 0 in
14:14 92.8 °F 43.7 °F 29.6 in NNE 4.3 mph 12 mph 18.4% 0 in
14:19 92.8 °F 43.5 °F 29.6 in ONO 4.6 mph 12 mph 18.3% 0 in
14:24 93 °F 43.3 °F 29.6 in OSO 5.2 mph 10.4 mph 18% 0 in
14:29 93.7 °F 43.2 °F 29.6 in Sur 5.3 mph 15 mph 17.5% 0 in
14:34 93.6 °F 43.3 °F 29.6 in ENE 5.4 mph 15 mph 17.8% 0 in
14:39 94.3 °F 43.7 °F 29.6 in SE 5 mph 13 mph 17.7% 0 in
14:44 94.6 °F 43 °F 29.6 in Sur 4.3 mph 13 mph 17% 0 in
14:49 94.6 °F 43.3 °F 29.6 in SSO 4.9 mph 13 mph 17.2% 0 in
14:54 94.8 °F 43.2 °F 29.6 in SSO 6.4 mph 16.1 mph 17% 0 in
14:59 94.8 °F 42.8 °F 29.6 in SO 6.8 mph 16 mph 16.7% 0 in
15:04 95.2 °F 43 °F 29.6 in SSE 7.4 mph 13 mph 16.7% 0 in
15:09 95.4 °F 43.2 °F 29.6 in Sur 7 mph 14 mph 16.7% 0 in
15:14 95.9 °F 43.2 °F 29.6 in SO 6.2 mph 14 mph 16.4% 0 in
15:19 96.4 °F 43 °F 29.6 in SSO 5.7 mph 10 mph 16% 0 in
15:24 96.6 °F 43.2 °F 29.6 in SSO 4.7 mph 10.4 mph 16% 0 in
15:29 96.4 °F 43 °F 29.6 in ENE 4.9 mph 11.2 mph 16.1% 0 in
15:34 96.4 °F 43 °F 29.6 in North 5.4 mph 12 mph 16.1% 0 in
15:39 96.4 °F 42.8 °F 29.6 in NNE 5.7 mph 12 mph 16% 0 in
15:44 96.3 °F 42.6 °F 29.6 in North 6.2 mph 16.1 mph 16% 0 in
15:49 96.1 °F 43.9 °F 29.6 in North 6.4 mph 16 mph 16.8% 0 in
15:54 95.9 °F 44.1 °F 29.6 in North 6.9 mph 14 mph 17% 0 in
15:59 95.5 °F 47.3 °F 29.6 in NO 6.7 mph 12.7 mph 19.5% 0 in
16:04 95.2 °F 50.9 °F 29.6 in NO 6.4 mph 17 mph 22.5% 0 in
16:09 94.8 °F 51.6 °F 29.6 in ONO 7.1 mph 17.3 mph 23.3% 0 in
16:14 94.6 °F 52.3 °F 29.6 in NO 8.5 mph 16.3 mph 24% 0 in
16:19 94.6 °F 52.2 °F 29.6 in NNO 9 mph 20.7 mph 24% 0 in
16:24 94.5 °F 52.5 °F 29.6 in NNO 10.2 mph 24.2 mph 24.3% 0 in
16:29 95 °F 52.7 °F 29.6 in NO 10.1 mph 24 mph 24.1% 0 in
16:34 95.2 °F 52.7 °F 29.6 in NNO 10 mph 19 mph 24.1% 0 in
16:39 95.2 °F 53.2 °F 29.6 in NO 9.6 mph 17.5 mph 24.5% 0 in
16:44 95.2 °F 53.2 °F 29.6 in ONO 8.5 mph 17 mph 24.4% 0 in
16:49 95.5 °F 53.1 °F 29.6 in NO 8.5 mph 26.8 mph 24% 0 in
16:54 95.7 °F 53.1 °F 29.6 in NO 8.5 mph 27.6 mph 24% 0 in
16:59 95.4 °F 52.9 °F 29.6 in NO 11.1 mph 28.8 mph 24% 0 in
17:04 95.7 °F 53.1 °F 29.6 in ONO 15.6 mph 29 mph 24% 0 in
17:09 95.7 °F 53.2 °F 29.6 in NO 14.2 mph 22.3 mph 24% 0 in
17:14 95.4 °F 52.9 °F 29.6 in NO 11.2 mph 25.6 mph 24% 0 in
17:19 95.2 °F 53.4 °F 29.6 in NO 12.2 mph 26 mph 24.6% 0 in
17:24 95.4 °F 53.2 °F 29.6 in ONO 14.5 mph 28.8 mph 24.3% 0 in
17:29 95.5 °F 53.1 °F 29.6 in ONO 14.4 mph 29 mph 24% 0 in
17:34 95.4 °F 53.2 °F 29.6 in NO 14 mph 29.1 mph 24.4% 0 in
17:39 95.5 °F 53.4 °F 29.6 in ONO 14.4 mph 29 mph 24.4% 0 in
17:44 95.4 °F 52.9 °F 29.6 in ONO 15.2 mph 24 mph 24% 0 in
17:49 95.5 °F 53.6 °F 29.6 in ONO 14.7 mph 23.5 mph 24.6% 0 in
17:54 95.4 °F 52.9 °F 29.6 in ONO 13.5 mph 25.3 mph 24% 0 in
17:59 95.2 °F 53.1 °F 29.6 in ONO 13.9 mph 26.8 mph 24.4% 0 in
18:04 95.4 °F 53.1 °F 29.6 in ONO 14.5 mph 27 mph 24.2% 0 in
18:09 95 °F 52.7 °F 29.6 in ONO 14.2 mph 24.6 mph 24.1% 0 in
18:14 94.8 °F 52.7 °F 29.6 in NO 13.7 mph 26.5 mph 24.2% 0 in
18:19 94.6 °F 52.3 °F 29.6 in ONO 14 mph 29.9 mph 24% 0 in
18:24 94.3 °F 52 °F 29.6 in ONO 14.5 mph 30 mph 24.1% 0 in
18:29 93.9 °F 52 °F 29.6 in ONO 15.5 mph 28 mph 24.4% 0 in
18:34 94.1 °F 52 °F 29.6 in ONO 17.5 mph 29.1 mph 24.2% 0 in
18:39 93.9 °F 51.8 °F 29.6 in ONO 17.1 mph 29 mph 24.1% 0 in
18:44 93.9 °F 51.6 °F 29.6 in ONO 16.3 mph 27.6 mph 24% 0 in
18:49 94.1 °F 51.8 °F 29.6 in ONO 15.5 mph 28 mph 24% 0 in
18:54 94.1 °F 51.8 °F 29.6 in ONO 13.7 mph 29.9 mph 24% 0 in
18:59 93.9 °F 51.3 °F 29.6 in ONO 14.4 mph 30.6 mph 23.6% 0 in
19:04 93.9 °F 51.1 °F 29.6 in ONO 15.6 mph 31.1 mph 23.6% 0 in
19:09 93.9 °F 51.4 °F 29.6 in ONO 15.8 mph 29.9 mph 23.8% 0 in
19:14 93.7 °F 51.4 °F 29.6 in ONO 16.3 mph 30 mph 24% 0 in
19:19 93.6 °F 51.3 °F 29.6 in ONO 16.7 mph 26.5 mph 24% 0 in
19:24 93.4 °F 51.3 °F 29.6 in ONO 17.5 mph 29.1 mph 24% 0 in
19:29 93.6 °F 51.3 °F 29.6 in ONO 16.7 mph 29 mph 24% 0 in
19:34 93.7 °F 51.4 °F 29.6 in ONO 14.7 mph 19 mph 24% 0 in
19:39 93.7 °F 51.6 °F 29.6 in ONO 13.6 mph 20.4 mph 24% 0 in
19:44 93.6 °F 52.3 °F 29.6 in ONO 11.4 mph 21 mph 24.9% 0 in
19:49 93.4 °F 52.3 °F 29.6 in ONO 11.7 mph 21 mph 25% 0 in
19:54 93.4 °F 52.3 °F 29.6 in Oeste 12.5 mph 20.7 mph 25% 0 in
19:59 93.4 °F 52.2 °F 29.6 in Oeste 11.9 mph 24.2 mph 25% 0 in
20:04 92.8 °F 52.5 °F 29.6 in ONO 10.7 mph 25.3 mph 25.6% 0 in
20:09 92.7 °F 52.9 °F 29.6 in ONO 11 mph 25 mph 26% 0 in
20:14 92.5 °F 52.7 °F 29.6 in ONO 11.8 mph 24.2 mph 26% 0 in
20:19 92.1 °F 52.3 °F 29.6 in ONO 12.6 mph 24 mph 26% 0 in
20:24 92.1 °F 52.3 °F 29.6 in Oeste 14.5 mph 23 mph 26% 0 in
20:29 92.1 °F 52.5 °F 29.6 in Oeste 13.8 mph 23 mph 26.1% 0 in
20:34 92.1 °F 53.2 °F 29.6 in Oeste 12.3 mph 21 mph 27% 0 in
20:39 91.9 °F 53.2 °F 29.6 in Oeste 11.9 mph 23 mph 27% 0 in
20:44 91.9 °F 53.2 °F 29.6 in Oeste 10.7 mph 23.5 mph 27% 0 in
20:49 91.8 °F 53.4 °F 29.6 in Oeste 10.9 mph 23 mph 27.5% 0 in
20:54 91.4 °F 53.6 °F 29.6 in Oeste 11.4 mph 20.8 mph 28% 0 in
20:59 91.2 °F 53.6 °F 29.6 in Oeste 11.2 mph 21 mph 28% 0 in
21:04 91 °F 54 °F 29.6 in ONO 10.7 mph 19 mph 28.5% 0 in
21:09 90.9 °F 54.1 °F 29.6 in Oeste 10 mph 17 mph 29% 0 in
21:14 90.7 °F 54.1 °F 29.6 in Oeste 8.5 mph 16.1 mph 29% 0 in
21:19 90.5 °F 54 °F 29.6 in Oeste 8.7 mph 16.1 mph 29% 0 in
21:24 90.3 °F 53.8 °F 29.6 in Oeste 9.2 mph 16 mph 29% 0 in
21:29 90.3 °F 53.8 °F 29.6 in OSO 8.7 mph 14 mph 29% 0 in
21:34 90.1 °F 53.6 °F 29.6 in Oeste 7.6 mph 13 mph 29% 0 in
21:39 90.1 °F 53.8 °F 29.6 in Oeste 7.5 mph 17.3 mph 29.2% 0 in
21:44 90 °F 54.3 °F 29.6 in Oeste 7.4 mph 17 mph 30% 0 in
21:49 89.8 °F 54.1 °F 29.7 in Oeste 7.8 mph 18.4 mph 30% 0 in
21:54 89.8 °F 54.1 °F 29.7 in Oeste 8.7 mph 18 mph 30% 0 in
21:59 89.8 °F 54.1 °F 29.7 in Oeste 9.4 mph 20.7 mph 30% 0 in
22:04 89.6 °F 54.1 °F 29.7 in Oeste 10.7 mph 21 mph 30% 0 in
22:09 89.4 °F 54 °F 29.7 in Oeste 10.3 mph 20.7 mph 30% 0 in
22:14 89.4 °F 54 °F 29.7 in Oeste 9.2 mph 21 mph 30% 0 in
22:19 89.2 °F 54.5 °F 29.7 in Oeste 9.1 mph 18.1 mph 30.9% 0 in
22:24 89.2 °F 54.7 °F 29.7 in Oeste 8.7 mph 18.4 mph 31% 0 in
22:29 89.1 °F 54.5 °F 29.7 in Oeste 8.9 mph 16.1 mph 31% 0 in
22:34 89.1 °F 54.5 °F 29.7 in Oeste 9.2 mph 16 mph 31.2% 0 in
22:39 88.7 °F 55.2 °F 29.7 in Oeste 8.8 mph 15 mph 32% 0 in
22:44 88.5 °F 54.9 °F 29.7 in Oeste 8.1 mph 15 mph 32% 0 in
22:49 88.3 °F 54.9 °F 29.7 in Oeste 7.7 mph 17.5 mph 32% 0 in
22:54 88.3 °F 54.7 °F 29.7 in Oeste 6.9 mph 17 mph 32% 0 in
22:59 88.2 °F 55 °F 29.7 in Oeste 6.7 mph 13 mph 32.5% 0 in
23:04 88.2 °F 55.4 °F 29.7 in Oeste 6.4 mph 12 mph 33% 0 in
23:09 88 °F 55.2 °F 29.7 in NO 6.6 mph 15 mph 33% 0 in
23:14 87.6 °F 55.8 °F 29.7 in ONO 6.9 mph 17.3 mph 33.9% 0 in
23:19 87.3 °F 55.9 °F 29.7 in ONO 7.8 mph 19 mph 34.5% 0 in
23:24 87.3 °F 56.1 °F 29.7 in ONO 9.7 mph 20.7 mph 35% 0 in
23:29 86.7 °F 55.9 °F 29.7 in ONO 9.8 mph 21 mph 35% 0 in
23:34 86.5 °F 56.3 °F 29.7 in ONO 10 mph 21 mph 35.9% 0 in
23:39 86.4 °F 56.3 °F 29.7 in ONO 10.6 mph 21.9 mph 36% 0 in
23:44 86.2 °F 56.1 °F 29.7 in NO 11.8 mph 22 mph 36% 0 in
23:49 86.2 °F 56.5 °F 29.7 in ONO 12 mph 21 mph 36.7% 0 in
23:54 85.8 °F 56.5 °F 29.7 in ONO 12.5 mph 17.3 mph 37% 0 in
23:59 85.6 °F 56.5 °F 29.7 in ONO 11.6 mph 17 mph 37% 0 in
Murcia-Puente Tocinos, España
Compliments of Weather Underground - 3 mb

La estación de MeteoMurcia.com, publica sus datos en los siguientes proyectos:

Weather Underground PWS IMURCIAP2 Meteoclimatic www.awekas.at

W3Counter
Web Analytics